Home > Products > Valid Products > TAF

000
FTUS43 KFGF 231100
TAFFAR
TAF
KFAR 231120Z 2312/2412 19008KT P6SM SKC
     FM231500 21012KT P6SM SKC=



000
FTUS43 KFGF 231100
TAFGFK
TAF
KGFK 231120Z 2312/2412 22007KT P6SM SKC
     FM231700 22012KT P6SM SKC=



000
FTUS43 KFGF 230500
TAFGFK
TAF
KGFK 230520Z 2306/2406 21007KT P6SM SKC
      TEMPO 2306/2308 BKN050
     FM231500 22010KT P6SM SKC=



000
FTUS43 KFGF 230500
TAFFAR
TAF
KFAR 230520Z 2306/2406 21008KT P6SM SKC
      TEMPO 2306/2307 BKN070
     FM231500 21012KT P6SM SKC=



000
FTUS43 KFGF 222300
TAFFAR
TAF
KFAR 222320Z 2300/2324 22007KT P6SM BKN060
      TEMPO 2303/2305 SCT060
     FM230600 21008KT P6SM SKC
     FM231400 21010KT P6SM SKC=



000
FTUS43 KFGF 222300
TAFGFK
TAF
KGFK 222320Z 2300/2324 21010KT P6SM BKN080
      TEMPO 2300/2301 -RA
     FM230200 21008KT P6SM BKN050
     FM230600 22007KT P6SM SKC
     FM231400 33010KT P6SM SKC=



000
FTUS43 KFGF 221700
TAFFAR
TAF
KFAR 221725Z 2218/2318 17018G28KT P6SM BKN150
     FM222100 20011KT P6SM SCT035 BKN080
      TEMPO 2221/2224 SHRA BKN035 OVC080=



000
FTUS43 KFGF 221700
TAFFAR
TAF
KFAR 221725Z 2218/2318 17018G28KT P6SM BKN150
     FM222100 20011KT P6SM SCT035 BKN080
      TEMPO 2221/2224 SHRA BKN035 OVC080=



000
FTUS43 KFGF 221700
TAFGFK
TAF
KGFK 221725Z 2218/2318 19018G25KT P6SM SCT120 BKN160
     FM222000 19014G20KT P6SM BKN090
     FM222200 23011KT P6SM SCT050 BKN090
      TEMPO 2222/2224 -SHRA BKN050 BKN090=



000
FTUS43 KFGF 221700
TAFGFK
TAF
KGFK 221725Z 2218/2318 19018G25KT P6SM SCT120 BKN160
     FM222000 19014G20KT P6SM BKN090
     FM222200 23011KT P6SM SCT050 BKN090
      TEMPO 2222/2224 -SHRA BKN050 BKN090=



000
FTUS43 KFGF 221600 AAA
TAFGFK
TAF AMD
KGFK 221600Z 2216/2312 18020G30KT P6SM FEW100 BKN250
     FM222000 19014G20KT P6SM BKN090
     FM222200 23014KT P6SM SCT050 BKN090
      TEMPO 2222/2224 -SHRA BKN050 BKN090=



000
FTUS43 KFGF 221600 AAA
TAFGFK
TAF AMD
KGFK 221600Z 2216/2312 18020G30KT P6SM FEW100 BKN250
     FM222000 19014G20KT P6SM BKN090
     FM222200 23014KT P6SM SCT050 BKN090
      TEMPO 2222/2224 -SHRA BKN050 BKN090=



000
FTUS43 KFGF 221100
TAFFAR
TAF
KFAR 221139Z 2212/2312 15023G31KT P6SM SCT100
     FM221500 18020G29KT P6SM BKN120
     FM222100 20014KT P6SM VCSH BKN040=



000
FTUS43 KFGF 221100
TAFGFK
TAF
KGFK 221139Z 2212/2312 17018G25KT P6SM SCT120
     FM221500 18017KT P6SM BKN120
     FM222200 23014KT P6SM VCSH BKN040=



000
FTUS43 KFGF 220500
TAFGFK
TAF
KGFK 220520Z 2206/2306 16015G25KT P6SM SCT120
     FM221400 17017KT P6SM BKN120
     FM221800 18015KT P6SM VCSH BKN060=



000
FTUS43 KFGF 220500
TAFFAR
TAF
KFAR 220520Z 2206/2306 16020G30KT P6SM SCT120
     FM221400 16020G30KT P6SM BKN120
     FM221700 18015KT P6SM VCSH BKN060=



000
FTUS43 KFGF 220500
TAFFAR
TAF
KFAR 220520Z 2206/2306 16020G30KT P6SM SCT120
     FM221400 16020G30KT P6SM BKN120
     FM221700 18015KT P6SM VCSH BKN060=



000
FTUS43 KFGF 220500
TAFGFK
TAF
KGFK 220520Z 2206/2306 16015G25KT P6SM SCT120
     FM221400 17017KT P6SM BKN120
     FM221800 18015KT P6SM VCSH BKN060=



000
FTUS43 KFGF 212300
TAFFAR
TAF
KFAR 212320Z 2200/2224 16018G28KT P6SM SKC
     FM221500 17017KT P6SM BKN100=



000
FTUS43 KFGF 212300
TAFGFK
TAF
KGFK 212320Z 2200/2224 16018G28KT P6SM SKC
     FM221500 17017KT P6SM BKN100=



000
FTUS43 KFGF 212300
TAFFAR
TAF
KFAR 212320Z 2200/2224 16018G28KT P6SM SKC
     FM221500 17017KT P6SM BKN100=



000
FTUS43 KFGF 212300
TAFGFK
TAF
KGFK 212320Z 2200/2224 16018G28KT P6SM SKC
     FM221500 17017KT P6SM BKN100=



000
FTUS43 KFGF 211700
TAFFAR
TAF
KFAR 211716Z 2118/2218 15024G34KT P6SM SKC
     FM220000 16018G26KT P6SM BKN120
     FM221500 16022G30KT P6SM OVC040=



000
FTUS43 KFGF 211700
TAFGFK
TAF
KGFK 211716Z 2118/2218 16024G33KT P6SM SKC
     FM220000 16019G26KT P6SM SKC
     FM221500 16018G28KT P6SM OVC080=



000
FTUS43 KFGF 211500 AAA
TAFFAR
TAF AMD
KFAR 211503Z 2115/2212 15014G24KT P6SM SKC
     FM211800 16024G34KT P6SM SKC
     FM220600 16017G25KT P6SM BKN120=



000
FTUS43 KFGF 211100
TAFGFK
TAF
KGFK 211120Z 2112/2212 15014KT P6SM SKC
     FM211800 16024G33KT P6SM SKC
     FM220600 16017G25KT P6SM BKN120=



000
FTUS43 KFGF 211100
TAFFAR
TAF
KFAR 211120Z 2112/2212 15015KT P6SM SKC
     FM211800 16024G34KT P6SM SKC
     FM220600 16017G25KT P6SM BKN120=



000
FTUS43 KFGF 211100
TAFGFK
TAF
KGFK 211120Z 2112/2212 15014KT P6SM SKC
     FM211800 16024G33KT P6SM SKC
     FM220600 16017G25KT P6SM BKN120=



000
FTUS43 KFGF 211100
TAFFAR
TAF
KFAR 211120Z 2112/2212 15015KT P6SM SKC
     FM211800 16024G34KT P6SM SKC
     FM220600 16017G25KT P6SM BKN120=



000
FTUS43 KFGF 210500
TAFGFK
TAF
KGFK 210520Z 2106/2206 13010KT P6SM SKC
     FM211800 16020G30KT P6SM SKC=



000
FTUS43 KFGF 210500
TAFFAR
TAF
KFAR 210520Z 2106/2206 13010KT P6SM SKC
     FM211800 16020G30KT P6SM SKC=



000
FTUS43 KFGF 202300
TAFFAR
TAF
KFAR 202320Z 2100/2124 VRB06KT P6SM SKC
     FM210600 13010KT P6SM SKC
     FM211600 15020G30KT P6SM SKC=



000
FTUS43 KFGF 202300
TAFGFK
TAF
KGFK 202320Z 2100/2124 VRB06KT P6SM SKC
     FM210600 14010KT P6SM SKC
     FM211600 16020G30KT P6SM SKC=



000
FTUS43 KFGF 201700
TAFGFK
TAF
KGFK 201739Z 2018/2118 VRB04KT P6SM SKC
     FM202200 04008KT P6SM SKC
     FM210600 15008KT P6SM SKC
     FM211500 15020KT P6SM SCT250=



000
FTUS43 KFGF 201700
TAFFAR
TAF
KFAR 201739Z 2018/2118 35007KT P6SM SKC
     FM202200 02008KT P6SM SKC
     FM210600 15008KT P6SM SKC
     FM211500 15020KT P6SM FEW250=



    US Dept of Commerce
    National Oceanic and Atmospheric Administration
    National Weather Service
    1325 East West Highway
    Silver Spring, MD 20910
    Page Author: NWS Internet Services Team
Disclaimer
Information Quality
Credits
Glossary
Privacy Policy
Freedom of Information Act (FOIA)
About Us
Career Opportunities